N Myrtle Beach, South Carolina
Current Conditions -  °F | °C
As of 4:53 AM on Sunday 26 Oct 2014 (Local Time) from KCRE Reporting Station
Clear Clear  
Wind Chill: 56°   Ceiling: Unl
Heat Index: 56°   Visibility: 10mi
Dew Point: 44°   Wind: 6mph
Humidity: 64%   Direction: 270°W
Pressure: 29.87"   Gusts: NA
Location:  33.82°N, 78.68°W
Report Text: KCRE 260853Z AUTO 27005KT 10SM CLR 13/07 A2987 RMK AO1 SLP115 T01330067 56009
Loading
Personal Weather Stations






























Interactive Weather Map
Tropical Storm Tracking
New forecast layout! Learn more

10-Day Weather Forecast

Advertisements
Track Severe Weather on mobile